Schedule Details


Flight Number: CTN411
Departure: Frankfurt/main (EDDF) at 18:00
Arrival: Franjo Tudman (LDZA) at 19:25
Route: NOMBO UZ738 MUN UM867 VAROB DCT PIKIT DCT ARGOM

Weather Information
EDDF 290250Z 20009KT 9999 -RA SCT029 02/01 Q1004 NOSIG
LDZA 290230Z 10003KT 090V170 9999 FEW010 01/00 Q1009 NOSIG
Schedule Frequency

Route Map